createdAt,value
2019-04-10T00:01:25.900Z,96877.00
2019-04-10T00:03:58.687Z,96865.00
2019-04-10T00:06:30.008Z,96877.00
2019-04-10T00:09:02.945Z,96876.00
2019-04-10T00:11:36.674Z,96862.00
2019-04-10T00:14:08.360Z,96864.00
2019-04-10T00:16:40.488Z,96871.00
2019-04-10T00:19:12.788Z,96868.00
2019-04-10T00:21:45.217Z,96879.00
2019-04-10T00:24:16.917Z,96874.00
2019-04-10T00:26:48.255Z,96867.00
2019-04-10T00:29:20.334Z,96873.00
2019-04-10T00:31:54.142Z,96874.00
2019-04-10T00:34:25.729Z,96875.00
2019-04-10T00:36:57.646Z,96874.00
2019-04-10T00:39:28.807Z,96871.00
2019-04-10T00:42:00.863Z,96875.00
2019-04-10T00:44:32.190Z,96873.00
2019-04-10T00:47:04.511Z,96878.00
2019-04-10T00:49:36.548Z,96878.00
2019-04-10T00:52:08.031Z,96873.00
2019-04-10T00:54:39.331Z,96874.00
2019-04-10T00:57:11.214Z,96872.00
2019-04-10T00:59:42.269Z,96861.00
2019-04-10T01:02:14.975Z,96859.00
2019-04-10T01:04:46.724Z,96861.00
2019-04-10T01:07:18.893Z,96868.00
2019-04-10T01:09:50.433Z,96855.00
2019-04-10T01:12:22.079Z,96859.00
2019-04-10T01:14:54.034Z,96855.00
2019-04-10T01:17:26.334Z,96860.00
2019-04-10T01:19:58.493Z,96851.00
2019-04-10T01:22:30.890Z,96855.00
2019-04-10T01:25:02.289Z,96857.00
2019-04-10T01:27:34.109Z,96857.00
2019-04-10T01:30:07.073Z,96871.00
2019-04-10T01:32:38.412Z,96856.00
2019-04-10T01:35:09.977Z,96850.00
2019-04-10T01:37:49.504Z,96862.00
2019-04-10T01:40:15.002Z,96850.00
2019-04-10T01:42:59.959Z,96847.00
2019-04-10T01:45:20.031Z,96846.00
2019-04-10T01:47:51.282Z,96846.00
2019-04-10T01:50:22.597Z,96846.00
2019-04-10T01:52:53.714Z,96846.00
2019-04-10T01:55:29.546Z,96788.00
2019-04-10T01:58:00.968Z,96838.00
2019-04-10T02:00:32.843Z,96839.00
2019-04-10T02:03:04.137Z,96846.00
2019-04-10T02:05:36.592Z,96850.00
2019-04-10T02:08:11.427Z,96853.00
2019-04-10T02:10:41.224Z,96850.00
2019-04-10T02:13:12.685Z,96843.00
2019-04-10T02:15:44.112Z,96851.00
2019-04-10T02:18:15.291Z,96845.00
2019-04-10T02:20:47.366Z,96836.00
2019-04-10T02:23:19.341Z,96844.00
2019-04-10T02:25:50.939Z,96844.00
2019-04-10T02:28:22.778Z,96850.00
2019-04-10T02:30:54.552Z,96839.00
2019-04-10T02:33:27.526Z,96844.00
2019-04-10T02:35:59.187Z,96847.00
2019-04-10T02:38:48.963Z,96847.00
2019-04-10T02:41:03.598Z,96844.00
2019-04-10T02:43:36.028Z,96850.00
2019-04-10T02:46:08.335Z,96845.00
2019-04-10T02:48:41.553Z,96837.00
2019-04-10T02:51:13.674Z,96838.00
2019-04-10T02:53:45.941Z,96840.00
2019-04-10T02:56:18.121Z,96836.00
2019-04-10T02:58:51.557Z,96842.00
2019-04-10T03:01:25.065Z,96832.00
2019-04-10T03:03:57.070Z,96843.00
2019-04-10T03:06:29.282Z,96834.00
2019-04-10T03:09:16.340Z,96838.00
2019-04-10T03:11:35.397Z,96835.00
2019-04-10T03:14:08.023Z,96837.00
2019-04-10T03:16:39.929Z,96844.00
2019-04-10T03:19:11.616Z,96837.00
2019-04-10T03:21:43.380Z,96840.00
2019-04-10T03:24:14.924Z,96835.00
2019-04-10T03:26:46.550Z,96829.00
2019-04-10T03:29:18.285Z,96837.00
2019-04-10T03:31:52.271Z,96840.00
2019-04-10T03:34:27.818Z,96837.00
2019-04-10T03:36:58.364Z,96845.00
2019-04-10T03:39:31.699Z,96840.00
2019-04-10T03:42:06.496Z,96845.00
2019-04-10T03:44:38.886Z,96850.00
2019-04-10T03:47:11.178Z,96840.00
2019-04-10T03:49:42.664Z,96848.00
2019-04-10T03:52:14.375Z,96846.00
2019-04-10T03:54:48.163Z,96844.00
2019-04-10T03:57:20.580Z,96849.00
2019-04-10T03:59:51.934Z,96837.00
2019-04-10T04:02:23.997Z,96840.00
2019-04-10T04:04:55.935Z,96857.00
2019-04-10T04:07:27.846Z,96853.00
2019-04-10T04:10:00.195Z,96860.00
2019-04-10T04:12:32.782Z,96862.00
2019-04-10T04:15:05.386Z,96855.00
2019-04-10T04:17:37.815Z,96854.00
2019-04-10T04:20:09.329Z,96859.00
2019-04-10T04:22:41.187Z,96863.00
2019-04-10T04:25:13.063Z,96853.00
2019-04-10T04:27:44.746Z,96851.00
2019-04-10T04:30:16.980Z,96853.00
2019-04-10T04:32:48.599Z,96805.00
2019-04-10T04:35:20.258Z,96854.00
2019-04-10T04:37:52.622Z,96850.00
2019-04-10T04:40:25.898Z,96863.00
2019-04-10T04:42:58.029Z,96855.00
2019-04-10T04:45:30.020Z,96850.00
2019-04-10T04:48:01.829Z,96847.00
2019-04-10T04:50:34.226Z,96849.00
2019-04-10T04:53:06.680Z,96853.00
2019-04-10T04:55:39.428Z,96863.00
2019-04-10T04:58:11.749Z,96859.00
2019-04-10T05:00:42.993Z,96869.00
2019-04-10T05:03:14.606Z,96889.00
2019-04-10T05:05:45.766Z,96870.00
2019-04-10T05:08:17.525Z,96872.00
2019-04-10T05:10:50.192Z,96874.00
2019-04-10T05:13:22.342Z,96877.00
2019-04-10T05:15:53.944Z,96876.00
2019-04-10T05:18:25.442Z,96896.00
2019-04-10T05:20:56.815Z,96889.00
2019-04-10T05:23:28.836Z,96890.00
2019-04-10T05:26:00.565Z,96888.00
2019-04-10T05:28:32.738Z,96901.00
2019-04-10T05:31:04.073Z,96898.00
2019-04-10T05:33:36.607Z,96900.00
2019-04-10T05:36:08.937Z,96899.00
2019-04-10T05:38:40.208Z,96898.00
2019-04-10T05:41:11.502Z,96907.00
2019-04-10T05:43:42.843Z,96908.00
2019-04-10T05:46:15.118Z,96905.00
2019-04-10T05:48:46.358Z,96900.00
2019-04-10T05:51:17.637Z,96911.00
2019-04-10T05:53:51.346Z,96912.00
2019-04-10T05:56:22.517Z,96920.00
2019-04-10T05:58:54.599Z,96920.00
2019-04-10T06:01:35.241Z,96928.00
2019-04-10T06:03:59.417Z,96931.00
2019-04-10T06:06:30.718Z,96932.00
2019-04-10T06:09:02.583Z,96930.00
2019-04-10T06:11:35.127Z,96923.00
2019-04-10T06:14:06.652Z,96928.00
2019-04-10T06:16:37.817Z,96927.00
2019-04-10T06:19:09.514Z,96932.00
2019-04-10T06:21:41.134Z,96936.00
2019-04-10T06:24:12.434Z,96922.00
2019-04-10T06:26:43.739Z,96918.00
2019-04-10T06:29:15.102Z,96933.00
2019-04-10T06:31:47.198Z,96927.00
2019-04-10T06:34:20.475Z,96925.00
2019-04-10T06:36:52.032Z,96921.00
2019-04-10T06:39:23.318Z,96928.00
2019-04-10T06:41:55.985Z,96935.00
2019-04-10T06:44:28.767Z,96923.00
2019-04-10T06:47:00.382Z,96927.00
2019-04-10T06:49:33.094Z,96918.00
2019-04-10T06:52:04.748Z,96922.00
2019-04-10T06:54:36.483Z,96924.00
2019-04-10T06:57:08.284Z,96924.00
2019-04-10T06:59:40.016Z,96926.00
2019-04-10T07:02:21.779Z,96932.00
2019-04-10T07:04:51.553Z,96933.00
2019-04-10T07:07:20.241Z,96930.00
2019-04-10T07:09:52.315Z,96933.00
2019-04-10T07:12:30.142Z,96932.00
2019-04-10T07:14:59.734Z,96930.00
2019-04-10T07:17:35.602Z,96925.00
2019-04-10T07:20:05.319Z,96927.00
2019-04-10T07:22:44.568Z,96934.00
2019-04-10T07:25:12.706Z,96931.00
2019-04-10T07:27:44.149Z,96940.00
2019-04-10T07:30:17.327Z,96963.00
2019-04-10T07:32:49.213Z,96951.00
2019-04-10T07:35:21.858Z,96938.00
2019-04-10T07:37:56.432Z,96953.00
2019-04-10T07:40:28.247Z,96952.00
2019-04-10T07:43:00.677Z,96959.00
2019-04-10T07:45:32.097Z,96964.00
2019-04-10T07:48:04.447Z,96960.00
2019-04-10T07:50:37.124Z,96967.00
2019-04-10T07:53:08.564Z,96974.00
2019-04-10T07:55:39.810Z,96967.00
2019-04-10T07:58:11.116Z,96969.00
2019-04-10T08:00:42.943Z,96971.00
2019-04-10T08:03:14.728Z,96975.00
2019-04-10T08:05:46.114Z,96970.00
2019-04-10T08:08:17.541Z,96965.00
2019-04-10T08:10:49.153Z,96978.00
2019-04-10T08:13:20.485Z,96975.00
2019-04-10T08:15:52.254Z,96989.00
2019-04-10T08:18:23.593Z,97004.00
2019-04-10T08:20:55.228Z,96999.00
2019-04-10T08:23:28.122Z,97004.00
2019-04-10T08:26:00.106Z,97001.00
2019-04-10T08:28:32.667Z,97008.00
2019-04-10T08:31:04.469Z,96997.00
2019-04-10T08:33:36.684Z,96992.00
2019-04-10T08:36:08.031Z,96991.00
2019-04-10T08:38:40.079Z,96990.00
2019-04-10T08:41:11.449Z,97005.00
2019-04-10T08:43:42.904Z,96993.00
2019-04-10T08:46:14.453Z,96988.00
2019-04-10T08:48:46.267Z,96987.00
2019-04-10T08:51:17.913Z,96998.00
2019-04-10T08:53:49.179Z,97007.00
2019-04-10T08:56:20.771Z,96992.00
2019-04-10T08:58:52.173Z,96991.00
2019-04-10T09:01:23.530Z,96982.00
2019-04-10T09:03:55.222Z,96990.00
2019-04-10T09:06:27.258Z,96992.00
2019-04-10T09:08:59.357Z,96990.00
2019-04-10T09:11:32.968Z,96996.00
2019-04-10T09:14:05.239Z,96992.00
2019-04-10T09:16:36.503Z,96989.00
2019-04-10T09:19:07.670Z,96985.00
2019-04-10T09:21:38.924Z,96984.00
2019-04-10T09:24:10.285Z,96993.00
2019-04-10T09:26:41.541Z,96989.00
2019-04-10T09:29:13.994Z,96987.00
2019-04-10T09:31:46.071Z,96985.00
2019-04-10T09:34:19.910Z,96992.00
2019-04-10T09:36:53.395Z,96979.00
2019-04-10T09:39:27.583Z,96985.00
2019-04-10T09:41:59.051Z,96993.00
2019-04-10T09:44:30.506Z,96998.00
2019-04-10T09:47:02.143Z,96989.00
2019-04-10T09:49:40.371Z,96988.00
2019-04-10T09:52:06.943Z,96991.00
2019-04-10T09:54:38.549Z,96978.00
2019-04-10T09:57:09.805Z,96982.00
2019-04-10T09:59:41.306Z,96991.00
2019-04-10T10:02:13.254Z,96981.00
2019-04-10T10:04:46.014Z,96983.00
2019-04-10T10:07:18.637Z,96978.00
2019-04-10T10:09:49.904Z,96982.00
2019-04-10T10:12:21.167Z,96980.00
2019-04-10T10:14:52.588Z,96987.00
2019-04-10T10:17:24.446Z,96983.00
2019-04-10T10:19:55.709Z,96987.00
2019-04-10T10:22:27.414Z,96988.00
2019-04-10T10:24:59.373Z,96981.00
2019-04-10T10:27:30.860Z,96982.00
2019-04-10T10:30:02.546Z,96999.00
2019-04-10T10:32:35.140Z,96984.00
2019-04-10T10:35:07.406Z,96985.00
2019-04-10T10:37:39.076Z,96971.00
2019-04-10T10:40:12.193Z,96979.00
2019-04-10T10:42:43.554Z,96986.00
2019-04-10T10:45:16.006Z,96981.00
2019-04-10T10:47:48.484Z,96975.00
2019-04-10T10:50:19.909Z,96999.00
2019-04-10T10:52:52.144Z,96982.00
2019-04-10T10:55:25.413Z,96985.00
2019-04-10T10:57:59.406Z,96984.00
2019-04-10T11:00:31.444Z,96984.00
2019-04-10T11:03:02.909Z,96979.00
2019-04-10T11:05:37.156Z,96980.00
2019-04-10T11:08:08.532Z,96984.00
2019-04-10T11:10:41.079Z,96973.00
2019-04-10T11:13:14.926Z,96975.00
2019-04-10T11:15:46.422Z,96986.00
2019-04-10T11:18:19.279Z,96988.00
2019-04-10T11:20:50.658Z,96996.00
2019-04-10T11:23:22.236Z,96982.00
2019-04-10T11:25:55.146Z,96986.00
2019-04-10T11:31:01.721Z,96987.00
2019-04-10T11:33:34.799Z,96981.00
2019-04-10T11:36:07.755Z,96977.00
2019-04-10T11:38:39.875Z,96977.00
2019-04-10T11:41:12.514Z,96980.00
2019-04-10T11:43:44.608Z,96984.00
2019-04-10T11:46:17.145Z,96984.00
2019-04-10T11:48:49.312Z,96987.00
2019-04-10T11:51:23.517Z,96990.00
2019-04-10T11:53:56.951Z,96992.00
2019-04-10T11:56:30.065Z,97002.00
2019-04-10T11:59:01.643Z,96993.00
2019-04-10T12:01:35.946Z,96996.00
2019-04-10T12:04:10.727Z,96998.00
2019-04-10T12:06:43.214Z,97002.00
2019-04-10T12:10:01.867Z,96997.00
2019-04-10T12:11:51.209Z,97011.00
2019-04-10T12:14:23.634Z,97013.00
2019-04-10T12:16:55.831Z,97006.00
2019-04-10T12:19:27.165Z,97012.00
2019-04-10T12:21:58.300Z,97009.00
2019-04-10T12:24:30.300Z,97004.00
2019-04-10T12:27:02.421Z,96999.00
2019-04-10T12:29:34.984Z,97001.00
2019-04-10T12:32:06.380Z,97010.00
2019-04-10T12:34:38.292Z,97016.00
2019-04-10T12:37:09.518Z,97013.00
2019-04-10T12:39:41.244Z,97000.00
2019-04-10T12:42:12.506Z,97007.00
2019-04-10T12:44:44.158Z,97023.00
2019-04-10T12:47:15.534Z,97020.00
2019-04-10T12:49:47.663Z,97014.00
2019-04-10T12:52:20.583Z,97027.00
2019-04-10T12:54:53.239Z,97019.00
2019-04-10T12:57:24.586Z,97015.00
2019-04-10T13:00:01.383Z,97010.00
2019-04-10T13:02:30.191Z,97010.00
2019-04-10T13:05:02.923Z,97001.00
2019-04-10T13:07:37.964Z,97002.00
2019-04-10T13:10:09.290Z,97010.00
2019-04-10T13:12:41.538Z,97014.00
2019-04-10T13:15:15.147Z,97016.00
2019-04-10T13:17:47.000Z,97017.00
2019-04-10T13:20:19.909Z,97016.00
2019-04-10T13:22:51.197Z,97009.00
2019-04-10T13:25:23.954Z,97011.00
2019-04-10T13:27:55.355Z,97012.00
2019-04-10T13:30:27.057Z,97004.00
2019-04-10T13:32:58.660Z,97019.00
2019-04-10T13:35:30.277Z,97005.00
2019-04-10T13:38:01.709Z,97008.00
2019-04-10T13:40:33.772Z,97016.00
2019-04-10T13:43:05.364Z,96997.00
2019-04-10T13:45:37.420Z,97001.00
2019-04-10T13:48:08.664Z,97007.00
2019-04-10T13:50:41.077Z,97006.00
2019-04-10T13:53:13.444Z,97005.00
2019-04-10T13:55:44.872Z,97007.00
2019-04-10T13:58:17.264Z,97003.00
2019-04-10T14:00:49.674Z,96997.00
2019-04-10T14:03:21.271Z,96998.00
2019-04-10T14:05:52.873Z,96993.00
2019-04-10T14:08:40.452Z,96989.00
2019-04-10T14:10:57.835Z,97007.00
2019-04-10T14:13:29.640Z,97008.00
2019-04-10T14:16:02.299Z,97003.00
2019-04-10T14:18:33.459Z,97013.00
2019-04-10T14:21:09.705Z,97009.00
2019-04-10T14:23:39.528Z,97001.00
2019-04-10T14:26:42.013Z,97001.00
2019-04-10T14:29:09.808Z,97007.00
2019-04-10T14:31:46.699Z,96997.00
2019-04-10T14:34:19.847Z,97008.00
2019-04-10T14:36:52.726Z,97010.00
2019-04-10T14:39:24.453Z,96993.00
2019-04-10T14:41:55.738Z,97009.00
2019-04-10T14:44:27.028Z,97011.00
2019-04-10T14:46:58.298Z,97018.00
2019-04-10T14:49:31.334Z,97010.00
2019-04-10T14:52:03.265Z,97018.00
2019-04-10T14:54:35.689Z,97016.00
2019-04-10T14:57:07.551Z,97007.00
2019-04-10T14:59:40.096Z,97020.00
2019-04-10T15:02:12.657Z,97022.00
2019-04-10T15:04:45.748Z,97009.00
2019-04-10T15:07:18.210Z,97023.00
2019-04-10T15:09:49.664Z,97011.00
2019-04-10T15:12:20.772Z,97019.00
2019-04-10T15:14:52.224Z,97012.00
2019-04-10T15:17:23.802Z,97022.00
2019-04-10T15:19:55.080Z,97021.00
2019-04-10T15:22:27.562Z,97019.00
2019-04-10T15:24:59.339Z,97026.00
2019-04-10T15:27:31.597Z,97031.00
2019-04-10T15:30:02.856Z,97027.00
2019-04-10T15:32:35.925Z,97027.00
2019-04-10T15:35:08.381Z,97034.00
2019-04-10T15:37:39.762Z,97030.00
2019-04-10T15:40:19.581Z,97039.00
2019-04-10T15:42:46.116Z,97030.00
2019-04-10T15:45:18.169Z,97036.00
2019-04-10T15:47:54.161Z,97033.00
2019-04-10T15:50:22.762Z,97028.00
2019-04-10T15:52:55.675Z,97038.00
2019-04-10T15:55:28.030Z,97049.00
2019-04-10T15:58:02.042Z,97053.00
2019-04-10T16:00:33.073Z,97042.00
2019-04-10T16:03:05.005Z,97050.00
2019-04-10T16:05:36.368Z,97043.00
2019-04-10T16:08:08.161Z,97044.00
2019-04-10T16:10:47.688Z,97052.00
2019-04-10T16:13:37.165Z,97057.00
2019-04-10T16:16:26.061Z,97050.00
2019-04-10T16:19:08.454Z,97056.00
2019-04-10T16:21:41.488Z,97051.00
2019-04-10T16:24:14.459Z,97061.00
2019-04-10T16:26:47.290Z,97061.00
2019-04-10T16:29:20.212Z,97055.00
2019-04-10T16:31:53.114Z,97061.00
2019-04-10T16:34:24.893Z,97062.00
2019-04-10T16:36:57.652Z,97055.00
2019-04-10T16:39:30.084Z,97057.00
2019-04-10T16:42:02.240Z,97073.00
2019-04-10T16:44:33.732Z,97071.00
2019-04-10T16:47:05.888Z,97069.00
2019-04-10T16:49:37.565Z,97071.00
2019-04-10T16:52:09.564Z,97078.00
2019-04-10T16:54:41.027Z,97074.00
2019-04-10T16:57:12.740Z,97076.00
2019-04-10T16:59:44.508Z,97071.00
2019-04-10T17:02:15.802Z,97072.00
2019-04-10T17:04:47.997Z,97082.00
2019-04-10T17:07:19.634Z,97079.00
2019-04-10T17:09:51.479Z,97075.00
2019-04-10T17:12:23.252Z,97097.00
2019-04-10T17:14:55.428Z,97082.00
2019-04-10T17:17:26.888Z,97088.00
2019-04-10T17:19:59.501Z,97093.00
2019-04-10T17:22:39.076Z,97092.00
2019-04-10T17:25:06.317Z,97091.00
2019-04-10T17:27:39.407Z,97086.00
2019-04-10T17:30:11.650Z,97095.00
2019-04-10T17:32:43.054Z,97098.00
2019-04-10T17:35:15.714Z,97102.00
2019-04-10T17:37:47.782Z,97099.00
2019-04-10T17:40:31.086Z,97107.00
2019-04-10T17:42:52.838Z,97104.00
2019-04-10T17:45:25.808Z,97105.00
2019-04-10T17:47:57.994Z,97105.00
2019-04-10T17:50:30.045Z,97118.00
2019-04-10T17:53:01.860Z,97119.00
2019-04-10T17:55:33.657Z,97116.00
2019-04-10T17:58:05.661Z,97132.00
2019-04-10T18:00:45.183Z,97138.00
2019-04-10T18:03:18.638Z,97127.00
2019-04-10T18:05:50.940Z,97126.00
2019-04-10T18:08:26.379Z,97129.00
2019-04-10T18:10:57.134Z,97141.00
2019-04-10T18:13:28.893Z,97145.00
2019-04-10T18:16:00.517Z,97146.00
2019-04-10T18:18:32.639Z,97155.00
2019-04-10T18:21:04.492Z,97159.00
2019-04-10T18:23:36.346Z,97166.00
2019-04-10T18:26:08.742Z,97171.00
2019-04-10T18:28:41.387Z,97169.00
2019-04-10T18:31:13.078Z,97164.00
2019-04-10T18:33:45.282Z,97177.00
2019-04-10T18:36:17.528Z,97173.00
2019-04-10T18:38:48.631Z,97181.00
2019-04-10T18:41:19.996Z,97180.00
2019-04-10T18:43:50.995Z,97178.00
2019-04-10T18:46:22.517Z,97179.00
2019-04-10T18:48:56.841Z,97181.00
2019-04-10T18:51:28.280Z,97191.00
2019-04-10T18:53:59.736Z,97188.00
2019-04-10T18:56:31.402Z,97192.00
2019-04-10T18:59:12.392Z,97191.00
2019-04-10T19:01:51.736Z,97201.00
2019-04-10T19:04:39.158Z,97207.00
2019-04-10T19:07:11.223Z,97197.00
2019-04-10T19:09:43.244Z,97209.00
2019-04-10T19:12:14.709Z,97200.00
2019-04-10T19:14:46.705Z,97203.00
2019-04-10T19:17:19.000Z,97201.00
2019-04-10T19:19:50.840Z,97208.00
2019-04-10T19:22:22.240Z,97218.00
2019-04-10T19:24:54.877Z,97223.00
2019-04-10T19:27:26.724Z,97217.00
2019-04-10T19:29:59.084Z,97220.00
2019-04-10T19:32:35.291Z,97226.00
2019-04-10T19:35:07.677Z,97222.00
2019-04-10T19:37:39.257Z,97211.00
2019-04-10T19:40:11.319Z,97208.00
2019-04-10T19:42:43.758Z,97214.00
2019-04-10T19:45:15.355Z,97225.00
2019-04-10T19:47:46.593Z,97228.00
2019-04-10T19:50:19.328Z,97226.00
2019-04-10T19:52:51.121Z,97227.00
2019-04-10T19:55:23.970Z,97232.00
2019-04-10T19:57:55.455Z,97221.00
2019-04-10T20:00:31.069Z,97218.00
2019-04-10T20:03:02.196Z,97235.00
2019-04-10T20:05:33.695Z,97233.00
2019-04-10T20:08:05.722Z,97237.00
2019-04-10T20:10:37.435Z,97233.00
2019-04-10T20:13:08.948Z,97233.00
2019-04-10T20:15:41.029Z,97237.00
2019-04-10T20:18:12.693Z,97242.00
2019-04-10T20:20:43.945Z,97241.00
2019-04-10T20:23:15.981Z,97255.00
2019-04-10T20:25:48.507Z,97255.00
2019-04-10T20:28:20.608Z,97248.00
2019-04-10T20:30:54.573Z,97238.00
2019-04-10T20:33:25.068Z,97249.00
2019-04-10T20:35:56.507Z,97241.00
2019-04-10T20:38:27.997Z,97256.00
2019-04-10T20:41:00.324Z,97254.00
2019-04-10T20:43:33.688Z,97259.00
2019-04-10T20:46:06.331Z,97253.00
2019-04-10T20:48:40.369Z,97255.00
2019-04-10T20:51:12.448Z,97244.00
2019-04-10T20:53:44.339Z,97249.00
2019-04-10T20:56:18.283Z,97252.00
2019-04-10T20:58:50.533Z,97259.00
2019-04-10T21:01:22.416Z,97256.00
2019-04-10T21:03:55.261Z,97259.00
2019-04-10T21:06:27.253Z,97261.00
2019-04-10T21:08:58.940Z,97268.00
2019-04-10T21:11:31.317Z,97264.00
2019-04-10T21:14:03.069Z,97261.00
2019-04-10T21:16:35.753Z,97264.00
2019-04-10T21:19:06.969Z,97276.00
2019-04-10T21:21:39.098Z,97269.00
2019-04-10T21:24:11.373Z,97269.00
2019-04-10T21:26:42.711Z,97269.00
2019-04-10T21:29:21.046Z,97280.00
2019-04-10T21:32:09.735Z,97280.00
2019-04-10T21:34:43.242Z,97285.00
2019-04-10T21:37:15.834Z,97287.00
2019-04-10T21:39:48.138Z,97284.00
2019-04-10T21:42:22.754Z,97285.00
2019-04-10T21:44:53.379Z,97292.00
2019-04-10T21:47:25.671Z,97287.00
2019-04-10T21:49:57.308Z,97295.00
2019-04-10T21:52:29.072Z,97292.00
2019-04-10T21:55:00.729Z,97296.00
2019-04-10T21:57:32.558Z,97291.00
2019-04-10T22:00:03.882Z,97289.00
2019-04-10T22:02:37.993Z,97292.00
2019-04-10T22:05:10.212Z,97297.00
2019-04-10T22:08:01.134Z,97291.00
2019-04-10T22:10:37.444Z,97299.00
2019-04-10T22:13:09.053Z,97296.00
2019-04-10T22:15:42.041Z,97298.00
2019-04-10T22:18:13.366Z,97301.00
2019-04-10T22:20:44.680Z,97298.00
2019-04-10T22:23:16.276Z,97305.00
2019-04-10T22:25:47.968Z,97306.00
2019-04-10T22:28:19.451Z,97316.00
2019-04-10T22:30:50.720Z,97312.00
2019-04-10T22:33:22.288Z,97313.00
2019-04-10T22:35:53.447Z,97316.00
2019-04-10T22:38:25.011Z,97315.00
2019-04-10T22:40:58.084Z,97316.00
2019-04-10T22:43:30.162Z,97321.00
2019-04-10T22:46:02.589Z,97318.00
2019-04-10T22:48:33.965Z,97318.00
2019-04-10T22:51:07.955Z,97315.00
2019-04-10T22:53:39.667Z,97330.00
2019-04-10T22:56:10.958Z,97321.00
2019-04-10T22:58:43.149Z,97319.00
2019-04-10T23:01:15.853Z,97317.00
2019-04-10T23:03:47.536Z,97324.00
2019-04-10T23:06:18.781Z,97329.00
2019-04-10T23:08:49.901Z,97328.00
2019-04-10T23:11:30.442Z,97329.00
2019-04-10T23:13:54.307Z,97325.00
2019-04-10T23:16:26.168Z,97337.00
2019-04-10T23:18:58.211Z,97339.00
2019-04-10T23:21:30.397Z,97343.00
2019-04-10T23:24:01.674Z,97343.00
2019-04-10T23:26:33.326Z,97346.00
2019-04-10T23:29:06.182Z,97345.00
2019-04-10T23:31:37.459Z,97342.00
2019-04-10T23:34:08.743Z,97339.00
2019-04-10T23:36:40.389Z,97348.00
2019-04-10T23:39:12.259Z,97343.00
2019-04-10T23:41:43.483Z,97339.00
2019-04-10T23:44:14.794Z,97348.00
2019-04-10T23:46:45.944Z,97348.00
2019-04-10T23:49:17.375Z,97350.00
2019-04-10T23:51:49.561Z,97354.00
2019-04-10T23:54:21.561Z,97353.00
2019-04-10T23:56:54.678Z,97350.00
2019-04-10T23:59:26.677Z,97354.00
